sensor_id;sensor_type;location;lat;lon;timestamp;pressure;altitude;pressure_sealevel;temperature;humidity
51299;BME280;37382;45.192;9.790;2023-12-20T00:00:37;101421.22;;;1.20;100.00
51299;BME280;37382;45.192;9.790;2023-12-20T00:03:05;101416.13;;;1.17;100.00
51299;BME280;37382;45.192;9.790;2023-12-20T00:05:32;101409.78;;;1.29;100.00
51299;BME280;37382;45.192;9.790;2023-12-20T00:08:00;101403.91;;;1.13;100.00
51299;BME280;37382;45.192;9.790;2023-12-20T00:10:28;101405.94;;;0.75;100.00
51299;BME280;37382;45.192;9.790;2023-12-20T00:12:55;101399.88;;;0.96;100.00
51299;BME280;37382;45.192;9.790;2023-12-20T00:15:22;101395.88;;;1.13;100.00
51299;BME280;37382;45.192;9.790;2023-12-20T00:17:50;101395.88;;;0.90;100.00
51299;BME280;37382;45.192;9.790;2023-12-20T00:20:17;101388.78;;;0.89;100.00
51299;BME280;37382;45.192;9.790;2023-12-20T00:22:45;101367.81;;;0.71;100.00
51299;BME280;37382;45.192;9.790;2023-12-20T00:25:12;101365.22;;;0.59;100.00
51299;BME280;37382;45.192;9.790;2023-12-20T00:27:40;101358.03;;;0.59;100.00
51299;BME280;37382;45.192;9.790;2023-12-20T00:30:08;101356.88;;;0.39;100.00
51299;BME280;37382;45.192;9.790;2023-12-20T00:32:35;101352.59;;;0.37;100.00
51299;BME280;37382;45.192;9.790;2023-12-20T00:35:03;101349.41;;;0.67;100.00
51299;BME280;37382;45.192;9.790;2023-12-20T00:37:31;101331.34;;;0.93;100.00
51299;BME280;37382;45.192;9.790;2023-12-20T00:39:58;101321.56;;;1.03;100.00
51299;BME280;37382;45.192;9.790;2023-12-20T00:42:26;101323.50;;;0.79;100.00
51299;BME280;37382;45.192;9.790;2023-12-20T00:44:54;101317.22;;;1.02;100.00
51299;BME280;37382;45.192;9.790;2023-12-20T00:47:21;101305.25;;;1.40;100.00
51299;BME280;37382;45.192;9.790;2023-12-20T00:49:49;101313.91;;;1.21;100.00
51299;BME280;37382;45.192;9.790;2023-12-20T00:52:16;101312.94;;;1.22;100.00
51299;BME280;37382;45.192;9.790;2023-12-20T00:54:45;101314.50;;;0.91;100.00
51299;BME280;37382;45.192;9.790;2023-12-20T00:57:12;101310.75;;;0.94;100.00
51299;BME280;37382;45.192;9.790;2023-12-20T00:59:40;101308.06;;;0.82;100.00
51299;BME280;37382;45.192;9.790;2023-12-20T01:02:07;101301.03;;;1.04;100.00
51299;BME280;37382;45.192;9.790;2023-12-20T01:04:36;101301.13;;;1.25;100.00
51299;BME280;37382;45.192;9.790;2023-12-20T01:07:03;101296.25;;;1.08;100.00
51299;BME280;37382;45.192;9.790;2023-12-20T01:09:31;101288.22;;;1.08;100.00
51299;BME280;37382;45.192;9.790;2023-12-20T01:11:58;101285.69;;;1.17;100.00
51299;BME280;37382;45.192;9.790;2023-12-20T01:14:25;101287.50;;;1.05;100.00
51299;BME280;37382;45.192;9.790;2023-12-20T01:16:53;101287.50;;;1.05;100.00
51299;BME280;37382;45.192;9.790;2023-12-20T01:19:20;101299.16;;;0.70;100.00
51299;BME280;37382;45.192;9.790;2023-12-20T01:21:48;101300.84;;;0.49;100.00
51299;BME280;37382;45.192;9.790;2023-12-20T01:24:16;101300.53;;;0.29;100.00
51299;BME280;37382;45.192;9.790;2023-12-20T01:26:43;101298.41;;;0.10;100.00
51299;BME280;37382;45.192;9.790;2023-12-20T01:29:12;101305.44;;;0.35;100.00
51299;BME280;37382;45.192;9.790;2023-12-20T01:31:40;101313.16;;;0.27;100.00
51299;BME280;37382;45.192;9.790;2023-12-20T01:34:08;101309.16;;;0.22;100.00
51299;BME280;37382;45.192;9.790;2023-12-20T01:36:35;101317.06;;;0.23;100.00
51299;BME280;37382;45.192;9.790;2023-12-20T01:39:02;101306.69;;;0.54;100.00
51299;BME280;37382;45.192;9.790;2023-12-20T01:41:36;101294.69;;;0.82;100.00
51299;BME280;37382;45.192;9.790;2023-12-20T01:44:03;101295.50;;;0.71;100.00
51299;BME280;37382;45.192;9.790;2023-12-20T01:46:31;101284.56;;;0.97;100.00
51299;BME280;37382;45.192;9.790;2023-12-20T01:48:59;101272.75;;;1.11;100.00
51299;BME280;37382;45.192;9.790;2023-12-20T01:51:27;101256.16;;;1.29;100.00
51299;BME280;37382;45.192;9.790;2023-12-20T01:53:59;101258.13;;;1.15;100.00
51299;BME280;37382;45.192;9.790;2023-12-20T01:56:28;101244.38;;;1.09;100.00
51299;BME280;37382;45.192;9.790;2023-12-20T01:58:56;101242.19;;;1.14;100.00
51299;BME280;37382;45.192;9.790;2023-12-20T02:01:24;101242.38;;;1.33;100.00
51299;BME280;37382;45.192;9.790;2023-12-20T02:03:52;101223.25;;;1.38;100.00
51299;BME280;37382;45.192;9.790;2023-12-20T02:06:21;101236.53;;;1.39;100.00
51299;BME280;37382;45.192;9.790;2023-12-20T02:08:50;101223.97;;;1.40;100.00
51299;BME280;37382;45.192;9.790;2023-12-20T02:11:17;101227.97;;;1.57;100.00
51299;BME280;37382;45.192;9.790;2023-12-20T02:13:45;101223.44;;;1.57;100.00
51299;BME280;37382;45.192;9.790;2023-12-20T02:16:12;101222.94;;;1.09;100.00
51299;BME280;37382;45.192;9.790;2023-12-20T02:18:42;101237.69;;;0.80;100.00
51299;BME280;37382;45.192;9.790;2023-12-20T02:21:11;101244.47;;;0.28;100.00
51299;BME280;37382;45.192;9.790;2023-12-20T02:24:04;101248.44;;;0.11;100.00
51299;BME280;37382;45.192;9.790;2023-12-20T02:26:32;101244.78;;;0.12;100.00
51299;BME280;37382;45.192;9.790;2023-12-20T02:29:01;101241.16;;;0.13;100.00
51299;BME280;37382;45.192;9.790;2023-12-20T02:31:29;101237.19;;;-0.06;100.00
51299;BME280;37382;45.192;9.790;2023-12-20T02:33:57;101245.72;;;-0.01;100.00
51299;BME280;37382;45.192;9.790;2023-12-20T02:36:25;101244.63;;;0.02;100.00
51299;BME280;37382;45.192;9.790;2023-12-20T02:38:52;101243.81;;;0.13;100.00
51299;BME280;37382;45.192;9.790;2023-12-20T02:41:19;101227.72;;;0.71;100.00
51299;BME280;37382;45.192;9.790;2023-12-20T02:43:47;101229.44;;;0.72;100.00
51299;BME280;37382;45.192;9.790;2023-12-20T02:46:15;101228.22;;;0.76;100.00
51299;BME280;37382;45.192;9.790;2023-12-20T02:48:44;101207.13;;;0.94;100.00
51299;BME280;37382;45.192;9.790;2023-12-20T02:51:11;101221.34;;;1.06;100.00
51299;BME280;37382;45.192;9.790;2023-12-20T02:53:39;101211.22;;;1.21;100.00
51299;BME280;37382;45.192;9.790;2023-12-20T02:56:06;101204.78;;;1.23;100.00
51299;BME280;37382;45.192;9.790;2023-12-20T02:58:33;101214.25;;;1.39;100.00
51299;BME280;37382;45.192;9.790;2023-12-20T03:01:01;101203.84;;;1.46;100.00
51299;BME280;37382;45.192;9.790;2023-12-20T03:03:28;101192.69;;;1.29;100.00
51299;BME280;37382;45.192;9.790;2023-12-20T03:05:56;101197.00;;;1.53;100.00
51299;BME280;37382;45.192;9.790;2023-12-20T03:08:23;101186.66;;;1.48;100.00
51299;BME280;37382;45.192;9.790;2023-12-20T03:10:50;101186.22;;;1.64;100.00
51299;BME280;37382;45.192;9.790;2023-12-20T03:13:18;101188.28;;;1.39;100.00
51299;BME280;37382;45.192;9.790;2023-12-20T03:15:45;101189.53;;;1.56;100.00
51299;BME280;37382;45.192;9.790;2023-12-20T03:18:13;101185.06;;;1.57;100.00
51299;BME280;37382;45.192;9.790;2023-12-20T03:20:40;101180.22;;;1.72;100.00
51299;BME280;37382;45.192;9.790;2023-12-20T03:23:09;101182.84;;;1.83;100.00
51299;BME280;37382;45.192;9.790;2023-12-20T03:25:37;101189.78;;;1.86;100.00
51299;BME280;37382;45.192;9.790;2023-12-20T03:28:05;101194.97;;;1.99;100.00
51299;BME280;37382;45.192;9.790;2023-12-20T03:30:32;101184.88;;;1.91;100.00
51299;BME280;37382;45.192;9.790;2023-12-20T03:33:00;101181.50;;;1.89;100.00
51299;BME280;37382;45.192;9.790;2023-12-20T03:35:27;101186.97;;;1.66;100.00
51299;BME280;37382;45.192;9.790;2023-12-20T03:37:55;101180.16;;;1.62;100.00
51299;BME280;37382;45.192;9.790;2023-12-20T03:40:22;101166.63;;;1.85;100.00
51299;BME280;37382;45.192;9.790;2023-12-20T03:42:50;101167.22;;;1.88;100.00
51299;BME280;37382;45.192;9.790;2023-12-20T03:45:17;101160.06;;;1.99;100.00
51299;BME280;37382;45.192;9.790;2023-12-20T03:47:44;101156.47;;;1.88;100.00
51299;BME280;37382;45.192;9.790;2023-12-20T03:50:12;101148.38;;;1.78;100.00
51299;BME280;37382;45.192;9.790;2023-12-20T03:52:39;101150.56;;;1.73;100.00
51299;BME280;37382;45.192;9.790;2023-12-20T03:55:07;101153.13;;;1.96;100.00
51299;BME280;37382;45.192;9.790;2023-12-20T03:57:35;101164.44;;;1.57;100.00
51299;BME280;37382;45.192;9.790;2023-12-20T04:00:02;101154.66;;;1.68;100.00
51299;BME280;37382;45.192;9.790;2023-12-20T04:02:38;101153.66;;;1.90;100.00
51299;BME280;37382;45.192;9.790;2023-12-20T04:05:08;101143.84;;;2.00;100.00
51299;BME280;37382;45.192;9.790;2023-12-20T04:07:36;101132.31;;;2.09;100.00
51299;BME280;37382;45.192;9.790;2023-12-20T04:10:04;101126.66;;;2.03;100.00
51299;BME280;37382;45.192;9.790;2023-12-20T04:12:32;101123.69;;;2.06;100.00
51299;BME280;37382;45.192;9.790;2023-12-20T04:15:00;101111.81;;;2.08;100.00
51299;BME280;37382;45.192;9.790;2023-12-20T04:17:27;101111.81;;;2.08;100.00
51299;BME280;37382;45.192;9.790;2023-12-20T04:19:54;101103.06;;;2.06;100.00
51299;BME280;37382;45.192;9.790;2023-12-20T04:22:22;101109.94;;;1.99;100.00
51299;BME280;37382;45.192;9.790;2023-12-20T04:24:50;101104.38;;;2.12;100.00
51299;BME280;37382;45.192;9.790;2023-12-20T04:27:17;101097.97;;;2.03;100.00
51299;BME280;37382;45.192;9.790;2023-12-20T04:29:44;101092.44;;;1.95;100.00
51299;BME280;37382;45.192;9.790;2023-12-20T04:32:12;101094.19;;;2.06;100.00
51299;BME280;37382;45.192;9.790;2023-12-20T04:34:39;101100.22;;;1.98;100.00
51299;BME280;37382;45.192;9.790;2023-12-20T04:37:06;101096.91;;;1.94;100.00
51299;BME280;37382;45.192;9.790;2023-12-20T04:39:34;101094.84;;;1.98;100.00
51299;BME280;37382;45.192;9.790;2023-12-20T04:42:01;101098.38;;;1.99;100.00
51299;BME280;37382;45.192;9.790;2023-12-20T04:44:29;101103.31;;;2.03;100.00
51299;BME280;37382;45.192;9.790;2023-12-20T04:46:57;101097.44;;;1.88;100.00
51299;BME280;37382;45.192;9.790;2023-12-20T04:49:24;101114.47;;;1.77;100.00
51299;BME280;37382;45.192;9.790;2023-12-20T04:51:52;101103.22;;;1.63;100.00
51299;BME280;37382;45.192;9.790;2023-12-20T04:54:19;101114.66;;;1.44;100.00
51299;BME280;37382;45.192;9.790;2023-12-20T04:56:47;101122.59;;;1.01;100.00
51299;BME280;37382;45.192;9.790;2023-12-20T04:59:14;101125.84;;;0.84;100.00
51299;BME280;37382;45.192;9.790;2023-12-20T05:01:42;101129.72;;;0.80;100.00
51299;BME280;37382;45.192;9.790;2023-12-20T05:04:09;101121.41;;;0.94;100.00
51299;BME280;37382;45.192;9.790;2023-12-20T05:06:37;101117.69;;;1.18;100.00
51299;BME280;37382;45.192;9.790;2023-12-20T05:09:05;101125.94;;;1.26;100.00
51299;BME280;37382;45.192;9.790;2023-12-20T05:11:32;101126.66;;;1.28;100.00
51299;BME280;37382;45.192;9.790;2023-12-20T05:13:59;101124.19;;;1.36;100.00
51299;BME280;37382;45.192;9.790;2023-12-20T05:16:27;101115.06;;;1.60;100.00
51299;BME280;37382;45.192;9.790;2023-12-20T05:18:54;101111.22;;;1.74;100.00
51299;BME280;37382;45.192;9.790;2023-12-20T05:21:22;101104.44;;;1.80;100.00
51299;BME280;37382;45.192;9.790;2023-12-20T05:23:49;101100.28;;;1.87;100.00
51299;BME280;37382;45.192;9.790;2023-12-20T05:26:17;101093.34;;;1.63;100.00
51299;BME280;37382;45.192;9.790;2023-12-20T05:28:44;101085.09;;;1.76;100.00
51299;BME280;37382;45.192;9.790;2023-12-20T05:31:11;101085.00;;;1.87;100.00
51299;BME280;37382;45.192;9.790;2023-12-20T05:33:39;101084.25;;;1.97;100.00
51299;BME280;37382;45.192;9.790;2023-12-20T05:36:06;101085.53;;;2.02;100.00
51299;BME280;37382;45.192;9.790;2023-12-20T05:38:38;101085.22;;;1.95;100.00
51299;BME280;37382;45.192;9.790;2023-12-20T05:41:05;101084.41;;;2.05;100.00
51299;BME280;37382;45.192;9.790;2023-12-20T05:43:33;101083.06;;;1.89;100.00
51299;BME280;37382;45.192;9.790;2023-12-20T05:46:00;101079.91;;;1.84;100.00
51299;BME280;37382;45.192;9.790;2023-12-20T05:48:28;101074.91;;;2.01;100.00
51299;BME280;37382;45.192;9.790;2023-12-20T05:50:55;101071.84;;;2.05;100.00
51299;BME280;37382;45.192;9.790;2023-12-20T05:53:22;101075.97;;;2.09;100.00
51299;BME280;37382;45.192;9.790;2023-12-20T05:55:50;101070.63;;;2.19;100.00
51299;BME280;37382;45.192;9.790;2023-12-20T05:58:17;101073.69;;;2.05;100.00
51299;BME280;37382;45.192;9.790;2023-12-20T06:00:45;101074.50;;;2.05;100.00
51299;BME280;37382;45.192;9.790;2023-12-20T06:03:12;101071.50;;;2.20;100.00
51299;BME280;37382;45.192;9.790;2023-12-20T06:05:40;101073.44;;;1.87;100.00
51299;BME280;37382;45.192;9.790;2023-12-20T06:08:07;101083.00;;;1.80;100.00
51299;BME280;37382;45.192;9.790;2023-12-20T06:10:34;101075.44;;;1.64;100.00
51299;BME280;37382;45.192;9.790;2023-12-20T06:13:02;101075.63;;;1.51;100.00
51299;BME280;37382;45.192;9.790;2023-12-20T06:15:31;101089.94;;;1.19;100.00
51299;BME280;37382;45.192;9.790;2023-12-20T06:17:59;101078.13;;;1.10;100.00
51299;BME280;37382;45.192;9.790;2023-12-20T06:20:26;101078.69;;;1.25;100.00
51299;BME280;37382;45.192;9.790;2023-12-20T06:22:54;101075.88;;;1.48;100.00
51299;BME280;37382;45.192;9.790;2023-12-20T06:25:21;101064.97;;;1.60;100.00
51299;BME280;37382;45.192;9.790;2023-12-20T06:27:49;101063.44;;;1.89;100.00
51299;BME280;37382;45.192;9.790;2023-12-20T06:30:16;101073.97;;;1.81;100.00
51299;BME280;37382;45.192;9.790;2023-12-20T06:32:44;101065.34;;;1.77;100.00
51299;BME280;37382;45.192;9.790;2023-12-20T06:35:14;101070.84;;;1.75;100.00
51299;BME280;37382;45.192;9.790;2023-12-20T06:37:41;101061.53;;;1.80;100.00
51299;BME280;37382;45.192;9.790;2023-12-20T06:40:13;101066.44;;;1.95;100.00
51299;BME280;37382;45.192;9.790;2023-12-20T06:42:45;101067.81;;;1.90;100.00
51299;BME280;37382;45.192;9.790;2023-12-20T06:45:28;101060.13;;;2.06;100.00
51299;BME280;37382;45.192;9.790;2023-12-20T06:47:55;101057.72;;;2.03;100.00
51299;BME280;37382;45.192;9.790;2023-12-20T06:50:23;101054.56;;;2.29;100.00
51299;BME280;37382;45.192;9.790;2023-12-20T06:52:50;101058.16;;;2.39;100.00
51299;BME280;37382;45.192;9.790;2023-12-20T06:55:17;101058.41;;;2.36;100.00
51299;BME280;37382;45.192;9.790;2023-12-20T06:57:45;101053.19;;;2.44;100.00
51299;BME280;37382;45.192;9.790;2023-12-20T07:00:13;101054.56;;;2.29;100.00
51299;BME280;37382;45.192;9.790;2023-12-20T07:02:41;101065.94;;;2.42;100.00
51299;BME280;37382;45.192;9.790;2023-12-20T07:05:08;101072.34;;;2.61;100.00
51299;BME280;37382;45.192;9.790;2023-12-20T07:07:35;101071.63;;;2.69;100.00
51299;BME280;37382;45.192;9.790;2023-12-20T07:10:03;101078.13;;;2.66;100.00
51299;BME280;37382;45.192;9.790;2023-12-20T07:12:31;101098.50;;;2.69;100.00
51299;BME280;37382;45.192;9.790;2023-12-20T07:14:58;101096.78;;;2.67;100.00
51299;BME280;37382;45.192;9.790;2023-12-20T07:17:26;101095.34;;;2.54;100.00
51299;BME280;37382;45.192;9.790;2023-12-20T07:19:54;101096.56;;;2.40;100.00
51299;BME280;37382;45.192;9.790;2023-12-20T07:22:22;101113.13;;;2.14;100.00
51299;BME280;37382;45.192;9.790;2023-12-20T07:24:49;101108.34;;;2.18;100.00
51299;BME280;37382;45.192;9.790;2023-12-20T07:27:19;101110.44;;;2.14;100.00
51299;BME280;37382;45.192;9.790;2023-12-20T07:29:47;101113.16;;;2.24;100.00
51299;BME280;37382;45.192;9.790;2023-12-20T07:32:14;101115.53;;;2.17;100.00
51299;BME280;37382;45.192;9.790;2023-12-20T07:34:42;101118.06;;;2.40;100.00
51299;BME280;37382;45.192;9.790;2023-12-20T07:37:09;101116.72;;;2.24;100.00
51299;BME280;37382;45.192;9.790;2023-12-20T07:39:41;101112.94;;;2.27;100.00
51299;BME280;37382;45.192;9.790;2023-12-20T07:42:08;101103.94;;;2.47;100.00
51299;BME280;37382;45.192;9.790;2023-12-20T07:44:36;101105.09;;;2.55;100.00
51299;BME280;37382;45.192;9.790;2023-12-20T07:47:04;101093.53;;;2.64;100.00
51299;BME280;37382;45.192;9.790;2023-12-20T07:49:31;101106.50;;;2.59;100.00
51299;BME280;37382;45.192;9.790;2023-12-20T07:52:00;101103.88;;;2.69;100.00
51299;BME280;37382;45.192;9.790;2023-12-20T07:54:27;101097.47;;;2.50;100.00
51299;BME280;37382;45.192;9.790;2023-12-20T07:56:56;101096.78;;;2.58;100.00
51299;BME280;37382;45.192;9.790;2023-12-20T07:59:24;101097.94;;;2.75;100.00
51299;BME280;37382;45.192;9.790;2023-12-20T08:01:59;101089.31;;;2.71;100.00
51299;BME280;37382;45.192;9.790;2023-12-20T08:04:27;101094.00;;;2.89;100.00
51299;BME280;37382;45.192;9.790;2023-12-20T08:06:55;101092.06;;;3.20;100.00
51299;BME280;37382;45.192;9.790;2023-12-20T08:09:22;101088.66;;;3.37;100.00
51299;BME280;37382;45.192;9.790;2023-12-20T08:11:50;101085.69;;;3.50;100.00
51299;BME280;37382;45.192;9.790;2023-12-20T08:14:18;101090.63;;;3.45;100.00
51299;BME280;37382;45.192;9.790;2023-12-20T08:16:45;101098.28;;;3.11;100.00
51299;BME280;37382;45.192;9.790;2023-12-20T08:19:12;101102.81;;;3.10;100.00
51299;BME280;37382;45.192;9.790;2023-12-20T08:21:41;101099.53;;;2.87;100.00
51299;BME280;37382;45.192;9.790;2023-12-20T08:24:08;101105.19;;;2.84;100.00
51299;BME280;37382;45.192;9.790;2023-12-20T08:26:35;101096.72;;;3.18;100.00
51299;BME280;37382;45.192;9.790;2023-12-20T08:29:03;101093.31;;;3.26;100.00
51299;BME280;37382;45.192;9.790;2023-12-20T08:31:31;101098.41;;;3.48;100.00
51299;BME280;37382;45.192;9.790;2023-12-20T08:33:58;101102.41;;;3.44;100.00
51299;BME280;37382;45.192;9.790;2023-12-20T08:36:26;101094.91;;;3.48;100.00
51299;BME280;37382;45.192;9.790;2023-12-20T08:38:53;101094.88;;;3.58;100.00
51299;BME280;37382;45.192;9.790;2023-12-20T08:41:22;101088.91;;;3.64;100.00
51299;BME280;37382;45.192;9.790;2023-12-20T08:43:50;101088.63;;;3.67;100.00
51299;BME280;37382;45.192;9.790;2023-12-20T08:46:18;101078.44;;;3.70;100.00
51299;BME280;37382;45.192;9.790;2023-12-20T08:48:46;101088.09;;;3.44;100.00
51299;BME280;37382;45.192;9.790;2023-12-20T08:51:13;101085.13;;;3.47;100.00
51299;BME280;37382;45.192;9.790;2023-12-20T08:53:41;101078.63;;;3.30;100.00
51299;BME280;37382;45.192;9.790;2023-12-20T08:56:12;101077.16;;;3.65;100.00
51299;BME280;37382;45.192;9.790;2023-12-20T08:58:40;101073.22;;;3.69;100.00
51299;BME280;37382;45.192;9.790;2023-12-20T09:01:07;101063.63;;;3.37;100.00
51299;BME280;37382;45.192;9.790;2023-12-20T09:03:34;101074.34;;;3.47;100.00
51299;BME280;37382;45.192;9.790;2023-12-20T09:06:02;101064.81;;;3.82;100.00
51299;BME280;37382;45.192;9.790;2023-12-20T09:08:29;101078.03;;;3.55;100.00
51299;BME280;37382;45.192;9.790;2023-12-20T09:10:57;101068.97;;;3.56;100.00
51299;BME280;37382;45.192;9.790;2023-12-20T09:13:25;101061.88;;;3.65;100.00
51299;BME280;37382;45.192;9.790;2023-12-20T09:15:56;101057.06;;;3.69;100.00
51299;BME280;37382;45.192;9.790;2023-12-20T09:18:24;101052.88;;;3.94;100.00
51299;BME280;37382;45.192;9.790;2023-12-20T09:20:51;101047.47;;;4.04;100.00
51299;BME280;37382;45.192;9.790;2023-12-20T09:23:19;101048.78;;;4.27;100.00
51299;BME280;37382;45.192;9.790;2023-12-20T09:25:46;101060.88;;;4.23;100.00
51299;BME280;37382;45.192;9.790;2023-12-20T09:28:14;101055.78;;;4.10;100.00
51299;BME280;37382;45.192;9.790;2023-12-20T09:30:41;101056.63;;;4.11;100.00
51299;BME280;37382;45.192;9.790;2023-12-20T09:33:09;101067.16;;;4.04;100.00
51299;BME280;37382;45.192;9.790;2023-12-20T09:35:37;101061.63;;;4.06;100.00
51299;BME280;37382;45.192;9.790;2023-12-20T09:38:04;101047.75;;;4.01;100.00
51299;BME280;37382;45.192;9.790;2023-12-20T09:40:32;101049.50;;;4.30;100.00
51299;BME280;37382;45.192;9.790;2023-12-20T09:45:31;101040.50;;;4.85;100.00
51299;BME280;37382;45.192;9.790;2023-12-20T09:47:59;101048.50;;;4.76;100.00
51299;BME280;37382;45.192;9.790;2023-12-20T09:50:27;101043.88;;;4.69;100.00
51299;BME280;37382;45.192;9.790;2023-12-20T09:52:55;101036.66;;;4.69;100.00
51299;BME280;37382;45.192;9.790;2023-12-20T09:55:27;101042.31;;;4.48;100.00
51299;BME280;37382;45.192;9.790;2023-12-20T09:57:57;101029.44;;;4.42;100.00
51299;BME280;37382;45.192;9.790;2023-12-20T10:00:25;101033.50;;;4.74;100.00
51299;BME280;37382;45.192;9.790;2023-12-20T10:02:59;101029.13;;;4.91;100.00
51299;BME280;37382;45.192;9.790;2023-12-20T10:05:28;101030.78;;;5.10;100.00
51299;BME280;37382;45.192;9.790;2023-12-20T10:07:57;101029.69;;;5.21;100.00
51299;BME280;37382;45.192;9.790;2023-12-20T10:10:26;101026.94;;;5.12;100.00
51299;BME280;37382;45.192;9.790;2023-12-20T10:13:10;101029.81;;;5.11;100.00
51299;BME280;37382;45.192;9.790;2023-12-20T10:15:38;101029.44;;;5.06;100.00
51299;BME280;37382;45.192;9.790;2023-12-20T10:18:06;101030.66;;;4.93;100.00
51299;BME280;37382;45.192;9.790;2023-12-20T10:20:34;101024.41;;;4.93;100.00
51299;BME280;37382;45.192;9.790;2023-12-20T10:23:02;101026.41;;;5.09;100.00
51299;BME280;37382;45.192;9.790;2023-12-20T10:25:31;101025.63;;;5.16;100.00
51299;BME280;37382;45.192;9.790;2023-12-20T10:30:41;101024.91;;;5.32;100.00
51299;BME280;37382;45.192;9.790;2023-12-20T10:33:09;101008.03;;;5.48;100.00
51299;BME280;37382;45.192;9.790;2023-12-20T10:35:39;101017.69;;;5.33;100.00
51299;BME280;37382;45.192;9.790;2023-12-20T10:38:12;101010.91;;;5.55;100.00
51299;BME280;37382;45.192;9.790;2023-12-20T10:40:44;101015.50;;;5.89;100.00
51299;BME280;37382;45.192;9.790;2023-12-20T10:43:12;101019.50;;;5.77;100.00
51299;BME280;37382;45.192;9.790;2023-12-20T10:45:41;101019.97;;;5.72;100.00
51299;BME280;37382;45.192;9.790;2023-12-20T10:48:10;101029.28;;;5.51;100.00
51299;BME280;37382;45.192;9.790;2023-12-20T10:50:40;101023.50;;;5.46;100.00
51299;BME280;37382;45.192;9.790;2023-12-20T10:53:08;101026.47;;;5.61;100.00
51299;BME280;37382;45.192;9.790;2023-12-20T10:55:35;101021.16;;;5.69;100.00
51299;BME280;37382;45.192;9.790;2023-12-20T10:58:07;101026.47;;;5.35;100.00
51299;BME280;37382;45.192;9.790;2023-12-20T11:00:40;101021.84;;;5.72;100.00
51299;BME280;37382;45.192;9.790;2023-12-20T11:03:11;101014.84;;;5.87;100.00
51299;BME280;37382;45.192;9.790;2023-12-20T11:06:10;101023.53;;;5.73;100.00
51299;BME280;37382;45.192;9.790;2023-12-20T11:08:36;101011.94;;;6.07;100.00
51299;BME280;37382;45.192;9.790;2023-12-20T11:11:27;101006.22;;;6.18;100.00
51299;BME280;37382;45.192;9.790;2023-12-20T11:14:00;101009.25;;;6.15;100.00
51299;BME280;37382;45.192;9.790;2023-12-20T11:16:31;100996.22;;;6.53;100.00
51299;BME280;37382;45.192;9.790;2023-12-20T11:19:14;100995.59;;;6.75;100.00
51299;BME280;37382;45.192;9.790;2023-12-20T11:21:42;100988.19;;;7.02;100.00
51299;BME280;37382;45.192;9.790;2023-12-20T11:24:09;100982.09;;;7.08;100.00
51299;BME280;37382;45.192;9.790;2023-12-20T11:26:37;100972.47;;;6.98;100.00
51299;BME280;37382;45.192;9.790;2023-12-20T11:29:30;100965.34;;;6.72;100.00
51299;BME280;37382;45.192;9.790;2023-12-20T11:32:00;100974.16;;;6.90;100.00
51299;BME280;37382;45.192;9.790;2023-12-20T11:34:33;100963.69;;;7.04;100.00
51299;BME280;37382;45.192;9.790;2023-12-20T11:37:02;100958.78;;;7.07;100.00
51299;BME280;37382;45.192;9.790;2023-12-20T11:39:30;100952.69;;;6.89;100.00
51299;BME280;37382;45.192;9.790;2023-12-20T11:42:04;100959.13;;;6.96;100.00
51299;BME280;37382;45.192;9.790;2023-12-20T11:44:32;100956.91;;;6.75;100.00
51299;BME280;37382;45.192;9.790;2023-12-20T11:47:00;100959.28;;;6.94;100.00
51299;BME280;37382;45.192;9.790;2023-12-20T11:49:27;100946.72;;;7.43;100.00
51299;BME280;37382;45.192;9.790;2023-12-20T11:51:58;100956.53;;;7.44;100.00
51299;BME280;37382;45.192;9.790;2023-12-20T11:54:27;100953.44;;;7.63;100.00
51299;BME280;37382;45.192;9.790;2023-12-20T11:56:54;100942.16;;;7.99;100.00
51299;BME280;37382;45.192;9.790;2023-12-20T11:59:22;100936.81;;;8.14;100.00
51299;BME280;37382;45.192;9.790;2023-12-20T12:01:50;100931.19;;;8.55;100.00
51299;BME280;37382;45.192;9.790;2023-12-20T12:04:19;100925.38;;;8.67;100.00
51299;BME280;37382;45.192;9.790;2023-12-20T12:06:46;100926.34;;;8.43;100.00
51299;BME280;37382;45.192;9.790;2023-12-20T12:09:14;100930.78;;;8.67;100.00
51299;BME280;37382;45.192;9.790;2023-12-20T12:11:42;100933.53;;;9.05;100.00
51299;BME280;37382;45.192;9.790;2023-12-20T12:14:10;100938.53;;;9.16;100.00
51299;BME280;37382;45.192;9.790;2023-12-20T12:16:38;100940.97;;;9.11;100.00
51299;BME280;37382;45.192;9.790;2023-12-20T12:19:06;100936.06;;;9.44;100.00
51299;BME280;37382;45.192;9.790;2023-12-20T12:21:34;100929.16;;;9.72;100.00
51299;BME280;37382;45.192;9.790;2023-12-20T12:24:08;100927.53;;;9.48;100.00
51299;BME280;37382;45.192;9.790;2023-12-20T12:26:37;100921.63;;;9.59;100.00
51299;BME280;37382;45.192;9.790;2023-12-20T12:29:07;100915.75;;;9.55;100.00
51299;BME280;37382;45.192;9.790;2023-12-20T12:31:35;100931.03;;;9.56;100.00
51299;BME280;37382;45.192;9.790;2023-12-20T12:34:03;100926.72;;;9.47;100.00
51299;BME280;37382;45.192;9.790;2023-12-20T12:36:31;100909.28;;;9.41;100.00
51299;BME280;37382;45.192;9.790;2023-12-20T12:38:58;100910.56;;;9.31;100.00
51299;BME280;37382;45.192;9.790;2023-12-20T12:41:29;100919.22;;;9.49;100.00
51299;BME280;37382;45.192;9.790;2023-12-20T12:43:56;100916.69;;;9.48;100.00
51299;BME280;37382;45.192;9.790;2023-12-20T12:46:31;100907.94;;;9.22;100.00
51299;BME280;37382;45.192;9.790;2023-12-20T12:49:00;100921.03;;;9.19;100.00
51299;BME280;37382;45.192;9.790;2023-12-20T12:51:27;100903.91;;;9.18;100.00
51299;BME280;37382;45.192;9.790;2023-12-20T12:53:55;100912.06;;;9.33;100.00
51299;BME280;37382;45.192;9.790;2023-12-20T12:56:22;100898.41;;;9.26;100.00
51299;BME280;37382;45.192;9.790;2023-12-20T12:58:50;100898.03;;;9.30;100.00
51299;BME280;37382;45.192;9.790;2023-12-20T13:01:17;100896.03;;;9.08;100.00